sensor_id;sensor_type;location;lat;lon;timestamp;temperature;humidity
21744;DHT22;11034;48.556;9.342;2022-07-29T00:00:26;18.70;99.90
21744;DHT22;11034;48.556;9.342;2022-07-29T00:02:54;18.70;99.90
21744;DHT22;11034;48.556;9.342;2022-07-29T00:05:22;18.80;99.90
21744;DHT22;11034;48.556;9.342;2022-07-29T00:07:50;18.90;99.90
21744;DHT22;11034;48.556;9.342;2022-07-29T00:10:20;18.90;99.90
21744;DHT22;11034;48.556;9.342;2022-07-29T00:12:48;18.90;99.90
21744;DHT22;11034;48.556;9.342;2022-07-29T00:15:17;18.90;99.90
21744;DHT22;11034;48.556;9.342;2022-07-29T00:17:45;18.90;99.90
21744;DHT22;11034;48.556;9.342;2022-07-29T00:20:13;18.90;99.90
21744;DHT22;11034;48.556;9.342;2022-07-29T00:22:42;18.90;99.90
21744;DHT22;11034;48.556;9.342;2022-07-29T00:25:10;19.00;99.90
21744;DHT22;11034;48.556;9.342;2022-07-29T00:27:40;19.00;99.90
21744;DHT22;11034;48.556;9.342;2022-07-29T00:30:09;19.00;99.90
21744;DHT22;11034;48.556;9.342;2022-07-29T00:32:37;18.90;99.90
21744;DHT22;11034;48.556;9.342;2022-07-29T00:35:06;18.80;99.90
21744;DHT22;11034;48.556;9.342;2022-07-29T00:37:52;18.70;99.90
21744;DHT22;11034;48.556;9.342;2022-07-29T00:40:20;18.70;99.90
21744;DHT22;11034;48.556;9.342;2022-07-29T00:42:52;18.50;99.90
21744;DHT22;11034;48.556;9.342;2022-07-29T00:45:20;18.60;99.90
21744;DHT22;11034;48.556;9.342;2022-07-29T00:47:48;18.60;99.90
21744;DHT22;11034;48.556;9.342;2022-07-29T00:50:16;18.50;99.90
21744;DHT22;11034;48.556;9.342;2022-07-29T00:52:45;18.50;99.90
21744;DHT22;11034;48.556;9.342;2022-07-29T00:55:15;18.50;99.90
21744;DHT22;11034;48.556;9.342;2022-07-29T00:57:43;18.40;99.90
21744;DHT22;11034;48.556;9.342;2022-07-29T01:00:16;18.30;99.90
21744;DHT22;11034;48.556;9.342;2022-07-29T01:02:45;18.30;99.90
21744;DHT22;11034;48.556;9.342;2022-07-29T01:05:16;18.30;99.90
21744;DHT22;11034;48.556;9.342;2022-07-29T01:07:46;18.30;99.90
21744;DHT22;11034;48.556;9.342;2022-07-29T01:10:16;18.30;99.90
21744;DHT22;11034;48.556;9.342;2022-07-29T01:12:48;18.30;99.90
21744;DHT22;11034;48.556;9.342;2022-07-29T01:15:18;18.30;99.90
21744;DHT22;11034;48.556;9.342;2022-07-29T01:17:51;18.20;99.90
21744;DHT22;11034;48.556;9.342;2022-07-29T01:20:25;18.20;99.90
21744;DHT22;11034;48.556;9.342;2022-07-29T01:23:28;18.20;99.90
21744;DHT22;11034;48.556;9.342;2022-07-29T01:26:16;18.20;99.90
21744;DHT22;11034;48.556;9.342;2022-07-29T01:29:14;18.10;99.90
21744;DHT22;11034;48.556;9.342;2022-07-29T01:31:48;18.10;99.90
21744;DHT22;11034;48.556;9.342;2022-07-29T01:34:31;18.10;99.90
21744;DHT22;11034;48.556;9.342;2022-07-29T01:37:08;18.10;99.90
21744;DHT22;11034;48.556;9.342;2022-07-29T01:39:42;18.00;99.90
21744;DHT22;11034;48.556;9.342;2022-07-29T01:42:15;18.00;99.90
21744;DHT22;11034;48.556;9.342;2022-07-29T01:44:50;18.00;99.90
21744;DHT22;11034;48.556;9.342;2022-07-29T01:47:23;18.00;99.90
21744;DHT22;11034;48.556;9.342;2022-07-29T01:49:55;18.00;99.90
21744;DHT22;11034;48.556;9.342;2022-07-29T01:52:29;18.10;99.90
21744;DHT22;11034;48.556;9.342;2022-07-29T01:55:04;18.00;99.90
21744;DHT22;11034;48.556;9.342;2022-07-29T01:57:36;17.90;99.90
21744;DHT22;11034;48.556;9.342;2022-07-29T02:00:09;17.90;99.90
21744;DHT22;11034;48.556;9.342;2022-07-29T02:02:38;17.90;99.90
21744;DHT22;11034;48.556;9.342;2022-07-29T02:05:10;17.80;99.90
21744;DHT22;11034;48.556;9.342;2022-07-29T02:07:40;17.80;99.90
21744;DHT22;11034;48.556;9.342;2022-07-29T02:10:09;17.80;99.90
21744;DHT22;11034;48.556;9.342;2022-07-29T02:12:39;17.80;99.90
21744;DHT22;11034;48.556;9.342;2022-07-29T02:15:16;17.80;99.90
21744;DHT22;11034;48.556;9.342;2022-07-29T02:17:49;17.80;99.90
21744;DHT22;11034;48.556;9.342;2022-07-29T02:20:19;17.70;99.90
21744;DHT22;11034;48.556;9.342;2022-07-29T02:22:49;17.80;99.90
21744;DHT22;11034;48.556;9.342;2022-07-29T02:25:19;17.80;99.90
21744;DHT22;11034;48.556;9.342;2022-07-29T02:27:50;17.90;99.90
21744;DHT22;11034;48.556;9.342;2022-07-29T02:30:22;17.90;99.90
21744;DHT22;11034;48.556;9.342;2022-07-29T02:32:51;17.90;99.90
21744;DHT22;11034;48.556;9.342;2022-07-29T02:35:20;17.90;99.90
21744;DHT22;11034;48.556;9.342;2022-07-29T02:37:50;17.90;99.90
21744;DHT22;11034;48.556;9.342;2022-07-29T02:40:34;18.00;99.90
21744;DHT22;11034;48.556;9.342;2022-07-29T02:43:06;18.10;99.90
21744;DHT22;11034;48.556;9.342;2022-07-29T02:45:36;18.10;99.90
21744;DHT22;11034;48.556;9.342;2022-07-29T02:48:09;18.10;99.90
21744;DHT22;11034;48.556;9.342;2022-07-29T02:50:44;18.10;99.90
21744;DHT22;11034;48.556;9.342;2022-07-29T02:53:17;18.10;99.90
21744;DHT22;11034;48.556;9.342;2022-07-29T02:55:50;18.10;99.90
21744;DHT22;11034;48.556;9.342;2022-07-29T02:58:27;18.10;99.90
21744;DHT22;11034;48.556;9.342;2022-07-29T03:01:01;17.90;99.90
21744;DHT22;11034;48.556;9.342;2022-07-29T03:03:35;17.90;99.90
21744;DHT22;11034;48.556;9.342;2022-07-29T03:06:05;17.90;99.90
21744;DHT22;11034;48.556;9.342;2022-07-29T03:08:34;17.90;99.90
21744;DHT22;11034;48.556;9.342;2022-07-29T03:11:03;17.80;99.90
21744;DHT22;11034;48.556;9.342;2022-07-29T03:13:32;17.80;99.90
21744;DHT22;11034;48.556;9.342;2022-07-29T03:16:02;17.90;99.90
21744;DHT22;11034;48.556;9.342;2022-07-29T03:18:31;17.90;99.90
21744;DHT22;11034;48.556;9.342;2022-07-29T03:21:00;18.00;99.90
21744;DHT22;11034;48.556;9.342;2022-07-29T03:23:28;18.10;99.90
21744;DHT22;11034;48.556;9.342;2022-07-29T03:26:02;18.20;99.90
21744;DHT22;11034;48.556;9.342;2022-07-29T03:28:30;18.20;99.90
21744;DHT22;11034;48.556;9.342;2022-07-29T03:31:01;18.20;99.90
21744;DHT22;11034;48.556;9.342;2022-07-29T03:33:31;18.20;99.90
21744;DHT22;11034;48.556;9.342;2022-07-29T03:35:59;18.20;99.90
21744;DHT22;11034;48.556;9.342;2022-07-29T03:38:30;18.10;99.90
21744;DHT22;11034;48.556;9.342;2022-07-29T03:41:03;18.00;99.90
21744;DHT22;11034;48.556;9.342;2022-07-29T03:43:36;18.00;99.90
21744;DHT22;11034;48.556;9.342;2022-07-29T03:46:17;18.00;99.90
21744;DHT22;11034;48.556;9.342;2022-07-29T03:48:52;18.00;99.90
21744;DHT22;11034;48.556;9.342;2022-07-29T03:51:23;17.90;99.90
21744;DHT22;11034;48.556;9.342;2022-07-29T03:54:00;17.80;99.90
21744;DHT22;11034;48.556;9.342;2022-07-29T03:56:38;17.80;99.90
21744;DHT22;11034;48.556;9.342;2022-07-29T03:59:07;17.80;99.90
21744;DHT22;11034;48.556;9.342;2022-07-29T04:01:37;17.80;99.90
21744;DHT22;11034;48.556;9.342;2022-07-29T04:04:06;17.70;99.90
21744;DHT22;11034;48.556;9.342;2022-07-29T04:06:39;17.60;99.90
21744;DHT22;11034;48.556;9.342;2022-07-29T04:09:08;17.70;99.90
21744;DHT22;11034;48.556;9.342;2022-07-29T04:11:37;17.80;99.90
21744;DHT22;11034;48.556;9.342;2022-07-29T04:14:25;17.70;99.90
21744;DHT22;11034;48.556;9.342;2022-07-29T04:16:55;17.80;99.90
21744;DHT22;11034;48.556;9.342;2022-07-29T04:19:23;17.80;99.90
21744;DHT22;11034;48.556;9.342;2022-07-29T04:21:51;17.80;99.90
21744;DHT22;11034;48.556;9.342;2022-07-29T04:24:19;17.80;99.90
21744;DHT22;11034;48.556;9.342;2022-07-29T04:26:47;17.80;99.90
21744;DHT22;11034;48.556;9.342;2022-07-29T04:29:15;17.80;99.90
21744;DHT22;11034;48.556;9.342;2022-07-29T04:31:43;17.90;99.90
21744;DHT22;11034;48.556;9.342;2022-07-29T04:34:14;17.90;99.90
21744;DHT22;11034;48.556;9.342;2022-07-29T04:36:43;17.90;99.90
21744;DHT22;11034;48.556;9.342;2022-07-29T04:39:11;18.10;99.90
21744;DHT22;11034;48.556;9.342;2022-07-29T04:41:45;18.10;99.90
21744;DHT22;11034;48.556;9.342;2022-07-29T04:44:13;18.20;99.90
21744;DHT22;11034;48.556;9.342;2022-07-29T04:46:42;18.20;99.90
21744;DHT22;11034;48.556;9.342;2022-07-29T04:49:12;18.30;99.90
21744;DHT22;11034;48.556;9.342;2022-07-29T04:51:41;18.30;99.90
21744;DHT22;11034;48.556;9.342;2022-07-29T04:54:09;18.30;99.90
21744;DHT22;11034;48.556;9.342;2022-07-29T04:56:37;18.30;99.90
21744;DHT22;11034;48.556;9.342;2022-07-29T04:59:05;18.30;99.90
21744;DHT22;11034;48.556;9.342;2022-07-29T05:01:33;18.30;99.90
21744;DHT22;11034;48.556;9.342;2022-07-29T05:04:01;18.30;99.90
21744;DHT22;11034;48.556;9.342;2022-07-29T05:06:31;18.90;99.90
21744;DHT22;11034;48.556;9.342;2022-07-29T05:08:59;19.40;99.90
21744;DHT22;11034;48.556;9.342;2022-07-29T05:11:27;19.60;99.90
21744;DHT22;11034;48.556;9.342;2022-07-29T05:13:56;19.60;99.90
21744;DHT22;11034;48.556;9.342;2022-07-29T05:16:24;19.90;99.90
21744;DHT22;11034;48.556;9.342;2022-07-29T05:18:52;20.00;99.90
21744;DHT22;11034;48.556;9.342;2022-07-29T05:21:22;20.10;99.90
21744;DHT22;11034;48.556;9.342;2022-07-29T05:23:51;20.50;99.90
21744;DHT22;11034;48.556;9.342;2022-07-29T05:26:19;21.00;99.90
21744;DHT22;11034;48.556;9.342;2022-07-29T05:28:48;21.30;99.90
21744;DHT22;11034;48.556;9.342;2022-07-29T05:31:16;22.00;99.90
21744;DHT22;11034;48.556;9.342;2022-07-29T05:33:44;22.10;99.90
21744;DHT22;11034;48.556;9.342;2022-07-29T05:36:12;22.20;99.90
21744;DHT22;11034;48.556;9.342;2022-07-29T05:38:40;22.40;99.90
21744;DHT22;11034;48.556;9.342;2022-07-29T05:41:09;22.90;99.90
21744;DHT22;11034;48.556;9.342;2022-07-29T05:43:38;23.40;99.90
21744;DHT22;11034;48.556;9.342;2022-07-29T05:46:06;23.80;99.90
21744;DHT22;11034;48.556;9.342;2022-07-29T05:48:34;24.20;99.90
21744;DHT22;11034;48.556;9.342;2022-07-29T05:51:02;24.70;99.90
21744;DHT22;11034;48.556;9.342;2022-07-29T05:53:31;24.40;99.90
21744;DHT22;11034;48.556;9.342;2022-07-29T05:56:03;24.00;99.90
21744;DHT22;11034;48.556;9.342;2022-07-29T05:58:32;23.50;99.90
21744;DHT22;11034;48.556;9.342;2022-07-29T06:01:00;23.80;99.90
21744;DHT22;11034;48.556;9.342;2022-07-29T06:03:29;23.50;99.90
21744;DHT22;11034;48.556;9.342;2022-07-29T06:05:57;23.40;99.90
21744;DHT22;11034;48.556;9.342;2022-07-29T06:08:28;23.60;99.90
21744;DHT22;11034;48.556;9.342;2022-07-29T06:10:56;24.10;99.90
21744;DHT22;11034;48.556;9.342;2022-07-29T06:13:25;24.40;99.90
21744;DHT22;11034;48.556;9.342;2022-07-29T06:15:55;24.80;99.90
21744;DHT22;11034;48.556;9.342;2022-07-29T06:18:23;25.20;99.90
21744;DHT22;11034;48.556;9.342;2022-07-29T06:20:51;26.20;99.90
21744;DHT22;11034;48.556;9.342;2022-07-29T06:23:20;26.40;99.90
21744;DHT22;11034;48.556;9.342;2022-07-29T06:25:48;26.90;99.90
21744;DHT22;11034;48.556;9.342;2022-07-29T06:28:16;27.00;99.90
21744;DHT22;11034;48.556;9.342;2022-07-29T06:30:44;27.30;99.90
21744;DHT22;11034;48.556;9.342;2022-07-29T06:33:17;27.20;99.90
21744;DHT22;11034;48.556;9.342;2022-07-29T06:35:46;26.60;99.90
21744;DHT22;11034;48.556;9.342;2022-07-29T06:38:20;25.90;99.90
21744;DHT22;11034;48.556;9.342;2022-07-29T06:41:01;25.40;99.90
21744;DHT22;11034;48.556;9.342;2022-07-29T06:43:32;25.10;99.90
21744;DHT22;11034;48.556;9.342;2022-07-29T06:46:19;24.90;99.90
21744;DHT22;11034;48.556;9.342;2022-07-29T06:48:49;24.40;99.90
21744;DHT22;11034;48.556;9.342;2022-07-29T06:51:19;25.00;99.90
21744;DHT22;11034;48.556;9.342;2022-07-29T06:53:50;25.30;99.90
21744;DHT22;11034;48.556;9.342;2022-07-29T06:56:28;25.50;99.90
21744;DHT22;11034;48.556;9.342;2022-07-29T06:58:57;26.40;99.90
21744;DHT22;11034;48.556;9.342;2022-07-29T07:01:27;26.90;99.90
21744;DHT22;11034;48.556;9.342;2022-07-29T07:03:57;26.90;99.90
21744;DHT22;11034;48.556;9.342;2022-07-29T07:06:25;26.90;99.90
21744;DHT22;11034;48.556;9.342;2022-07-29T07:08:53;27.30;99.90
21744;DHT22;11034;48.556;9.342;2022-07-29T07:11:22;27.80;99.90
21744;DHT22;11034;48.556;9.342;2022-07-29T07:13:50;27.60;99.90
21744;DHT22;11034;48.556;9.342;2022-07-29T07:16:18;27.50;99.90
21744;DHT22;11034;48.556;9.342;2022-07-29T07:18:46;27.40;99.90
21744;DHT22;11034;48.556;9.342;2022-07-29T07:21:16;27.00;99.90
21744;DHT22;11034;48.556;9.342;2022-07-29T07:23:45;27.70;99.90
21744;DHT22;11034;48.556;9.342;2022-07-29T07:26:14;27.70;99.90
21744;DHT22;11034;48.556;9.342;2022-07-29T07:28:42;27.80;99.90
21744;DHT22;11034;48.556;9.342;2022-07-29T07:31:10;26.90;99.90
21744;DHT22;11034;48.556;9.342;2022-07-29T07:33:38;25.90;99.90
21744;DHT22;11034;48.556;9.342;2022-07-29T07:36:06;25.80;99.90
21744;DHT22;11034;48.556;9.342;2022-07-29T07:38:36;25.40;99.90
21744;DHT22;11034;48.556;9.342;2022-07-29T07:41:04;25.30;99.90
21744;DHT22;11034;48.556;9.342;2022-07-29T07:43:32;25.50;99.90
21744;DHT22;11034;48.556;9.342;2022-07-29T07:46:00;25.70;99.90
21744;DHT22;11034;48.556;9.342;2022-07-29T07:48:29;26.60;99.90
21744;DHT22;11034;48.556;9.342;2022-07-29T07:50:57;27.30;99.90
21744;DHT22;11034;48.556;9.342;2022-07-29T07:53:25;27.50;99.90
21744;DHT22;11034;48.556;9.342;2022-07-29T07:55:55;27.70;99.90
21744;DHT22;11034;48.556;9.342;2022-07-29T07:58:37;27.80;99.90
21744;DHT22;11034;48.556;9.342;2022-07-29T08:01:05;27.50;99.90
21744;DHT22;11034;48.556;9.342;2022-07-29T08:03:34;27.00;99.90
21744;DHT22;11034;48.556;9.342;2022-07-29T08:06:02;27.60;99.90
21744;DHT22;11034;48.556;9.342;2022-07-29T08:08:30;27.70;99.90
21744;DHT22;11034;48.556;9.342;2022-07-29T08:11:00;27.80;99.90
21744;DHT22;11034;48.556;9.342;2022-07-29T08:13:34;27.90;99.90
21744;DHT22;11034;48.556;9.342;2022-07-29T08:16:03;28.20;99.90
21744;DHT22;11034;48.556;9.342;2022-07-29T08:18:40;28.20;99.90
21744;DHT22;11034;48.556;9.342;2022-07-29T08:21:08;28.20;99.90
21744;DHT22;11034;48.556;9.342;2022-07-29T08:23:40;28.20;99.90
21744;DHT22;11034;48.556;9.342;2022-07-29T08:26:21;28.40;99.90
21744;DHT22;11034;48.556;9.342;2022-07-29T08:28:50;28.20;99.90
21744;DHT22;11034;48.556;9.342;2022-07-29T08:31:18;28.20;99.90
21744;DHT22;11034;48.556;9.342;2022-07-29T08:33:46;28.30;99.90
21744;DHT22;11034;48.556;9.342;2022-07-29T08:36:14;28.10;99.90
21744;DHT22;11034;48.556;9.342;2022-07-29T08:38:42;28.10;99.90
21744;DHT22;11034;48.556;9.342;2022-07-29T08:41:10;27.80;99.90
21744;DHT22;11034;48.556;9.342;2022-07-29T08:43:41;27.30;99.90
21744;DHT22;11034;48.556;9.342;2022-07-29T08:46:09;27.00;99.90
21744;DHT22;11034;48.556;9.342;2022-07-29T08:48:37;26.30;99.90
21744;DHT22;11034;48.556;9.342;2022-07-29T08:51:07;26.40;99.90
21744;DHT22;11034;48.556;9.342;2022-07-29T08:53:36;26.30;99.90
21744;DHT22;11034;48.556;9.342;2022-07-29T08:56:05;26.30;99.90
21744;DHT22;11034;48.556;9.342;2022-07-29T08:58:34;26.10;99.90
21744;DHT22;11034;48.556;9.342;2022-07-29T09:01:04;26.00;99.90
21744;DHT22;11034;48.556;9.342;2022-07-29T09:03:39;26.10;99.90
21744;DHT22;11034;48.556;9.342;2022-07-29T09:06:08;25.90;99.90
21744;DHT22;11034;48.556;9.342;2022-07-29T09:08:37;26.00;99.90
21744;DHT22;11034;48.556;9.342;2022-07-29T09:11:05;26.00;99.90
21744;DHT22;11034;48.556;9.342;2022-07-29T09:13:34;26.10;99.90
21744;DHT22;11034;48.556;9.342;2022-07-29T09:16:05;25.90;99.90
21744;DHT22;11034;48.556;9.342;2022-07-29T09:18:36;25.90;99.90
21744;DHT22;11034;48.556;9.342;2022-07-29T09:21:06;26.10;99.90
21744;DHT22;11034;48.556;9.342;2022-07-29T09:24:03;26.20;99.90
21744;DHT22;11034;48.556;9.342;2022-07-29T09:26:32;26.10;99.90
21744;DHT22;11034;48.556;9.342;2022-07-29T09:29:08;26.10;99.90
21744;DHT22;11034;48.556;9.342;2022-07-29T09:31:41;26.10;99.90
21744;DHT22;11034;48.556;9.342;2022-07-29T09:34:10;26.20;99.90
21744;DHT22;11034;48.556;9.342;2022-07-29T09:36:39;26.20;99.90
21744;DHT22;11034;48.556;9.342;2022-07-29T09:39:08;26.50;99.90
21744;DHT22;11034;48.556;9.342;2022-07-29T09:41:48;26.60;99.90
21744;DHT22;11034;48.556;9.342;2022-07-29T09:44:16;26.60;99.90
21744;DHT22;11034;48.556;9.342;2022-07-29T09:47:04;26.50;99.90
21744;DHT22;11034;48.556;9.342;2022-07-29T09:49:34;26.90;99.90
21744;DHT22;11034;48.556;9.342;2022-07-29T09:52:07;27.00;99.90
21744;DHT22;11034;48.556;9.342;2022-07-29T09:54:36;27.40;99.90
21744;DHT22;11034;48.556;9.342;2022-07-29T09:57:05;27.60;99.90
21744;DHT22;11034;48.556;9.342;2022-07-29T09:59:33;27.80;99.90
21744;DHT22;11034;48.556;9.342;2022-07-29T10:02:18;28.10;99.90
21744;DHT22;11034;48.556;9.342;2022-07-29T10:04:49;28.00;99.90
21744;DHT22;11034;48.556;9.342;2022-07-29T10:07:17;28.10;99.90
21744;DHT22;11034;48.556;9.342;2022-07-29T10:09:52;28.00;99.90
21744;DHT22;11034;48.556;9.342;2022-07-29T10:12:21;28.10;99.90
21744;DHT22;11034;48.556;9.342;2022-07-29T10:14:50;28.10;99.90
21744;DHT22;11034;48.556;9.342;2022-07-29T10:17:21;28.40;99.90
21744;DHT22;11034;48.556;9.342;2022-07-29T10:19:49;28.50;99.90
21744;DHT22;11034;48.556;9.342;2022-07-29T10:22:18;28.40;99.90
21744;DHT22;11034;48.556;9.342;2022-07-29T10:25:07;28.00;99.90
21744;DHT22;11034;48.556;9.342;2022-07-29T10:27:37;27.60;99.90
21744;DHT22;11034;48.556;9.342;2022-07-29T10:30:07;27.40;99.90
21744;DHT22;11034;48.556;9.342;2022-07-29T10:32:51;27.10;99.90
21744;DHT22;11034;48.556;9.342;2022-07-29T10:35:48;27.30;99.90
21744;DHT22;11034;48.556;9.342;2022-07-29T10:38:32;27.50;99.90
21744;DHT22;11034;48.556;9.342;2022-07-29T10:41:23;27.40;99.90
21744;DHT22;11034;48.556;9.342;2022-07-29T10:44:04;27.50;99.90
21744;DHT22;11034;48.556;9.342;2022-07-29T10:46:36;27.60;99.90
21744;DHT22;11034;48.556;9.342;2022-07-29T10:49:11;28.00;99.90
21744;DHT22;11034;48.556;9.342;2022-07-29T10:51:58;28.10;99.90
21744;DHT22;11034;48.556;9.342;2022-07-29T10:54:47;28.20;99.90
21744;DHT22;11034;48.556;9.342;2022-07-29T10:57:23;28.20;99.90
21744;DHT22;11034;48.556;9.342;2022-07-29T11:00:27;28.10;99.90
21744;DHT22;11034;48.556;9.342;2022-07-29T11:02:56;27.90;99.90
21744;DHT22;11034;48.556;9.342;2022-07-29T11:05:26;28.30;99.90
21744;DHT22;11034;48.556;9.342;2022-07-29T11:08:19;28.50;99.90
21744;DHT22;11034;48.556;9.342;2022-07-29T11:14:13;28.30;99.90
21744;DHT22;11034;48.556;9.342;2022-07-29T11:17:01;27.80;99.90
21744;DHT22;11034;48.556;9.342;2022-07-29T11:19:33;27.40;99.90
21744;DHT22;11034;48.556;9.342;2022-07-29T11:22:03;27.00;99.90
21744;DHT22;11034;48.556;9.342;2022-07-29T11:24:35;27.00;99.90
21744;DHT22;11034;48.556;9.342;2022-07-29T11:27:17;27.40;99.90
21744;DHT22;11034;48.556;9.342;2022-07-29T11:29:52;27.80;99.90
21744;DHT22;11034;48.556;9.342;2022-07-29T11:32:22;28.30;99.90
21744;DHT22;11034;48.556;9.342;2022-07-29T11:35:10;28.40;99.90
21744;DHT22;11034;48.556;9.342;2022-07-29T11:41:23;28.80;99.90
21744;DHT22;11034;48.556;9.342;2022-07-29T11:43:53;28.90;99.90
21744;DHT22;11034;48.556;9.342;2022-07-29T11:46:42;28.40;99.90
21744;DHT22;11034;48.556;9.342;2022-07-29T11:49:12;28.50;99.90
21744;DHT22;11034;48.556;9.342;2022-07-29T11:51:41;28.30;99.90
21744;DHT22;11034;48.556;9.342;2022-07-29T11:54:17;27.90;99.90
21744;DHT22;11034;48.556;9.342;2022-07-29T11:56:54;27.00;99.90
21744;DHT22;11034;48.556;9.342;2022-07-29T11:59:24;25.40;99.90
21744;DHT22;11034;48.556;9.342;2022-07-29T12:02:01;24.60;99.90
21744;DHT22;11034;48.556;9.342;2022-07-29T12:04:49;24.30;99.90
21744;DHT22;11034;48.556;9.342;2022-07-29T12:07:18;24.30;99.90
21744;DHT22;11034;48.556;9.342;2022-07-29T12:09:50;24.40;99.90
21744;DHT22;11034;48.556;9.342;2022-07-29T12:12:24;24.50;99.90
21744;DHT22;11034;48.556;9.342;2022-07-29T12:14:54;25.00;99.90
21744;DHT22;11034;48.556;9.342;2022-07-29T12:17:26;25.10;99.90
21744;DHT22;11034;48.556;9.342;2022-07-29T12:20:03;25.00;99.90
21744;DHT22;11034;48.556;9.342;2022-07-29T12:22:36;25.40;99.90
21744;DHT22;11034;48.556;9.342;2022-07-29T12:25:07;25.40;99.90
21744;DHT22;11034;48.556;9.342;2022-07-29T12:28:01;25.70;99.90
21744;DHT22;11034;48.556;9.342;2022-07-29T12:30:39;25.50;99.90
21744;DHT22;11034;48.556;9.342;2022-07-29T12:33:21;25.20;99.90
21744;DHT22;11034;48.556;9.342;2022-07-29T12:35:53;25.00;99.90
21744;DHT22;11034;48.556;9.342;2022-07-29T12:38:34;25.10;99.90
21744;DHT22;11034;48.556;9.342;2022-07-29T12:41:02;24.90;99.90
21744;DHT22;11034;48.556;9.342;2022-07-29T12:43:32;24.80;99.90
21744;DHT22;11034;48.556;9.342;2022-07-29T12:46:12;24.80;99.90
21744;DHT22;11034;48.556;9.342;2022-07-29T12:48:43;24.50;99.90
21744;DHT22;11034;48.556;9.342;2022-07-29T12:51:11;23.50;99.90
21744;DHT22;11034;48.556;9.342;2022-07-29T12:53:41;22.50;99.90
21744;DHT22;11034;48.556;9.342;2022-07-29T12:56:15;21.70;99.90
21744;DHT22;11034;48.556;9.342;2022-07-29T12:59:16;21.20;99.90
21744;DHT22;11034;48.556;9.342;2022-07-29T13:01:45;21.00;99.90
21744;DHT22;11034;48.556;9.342;2022-07-29T13:04:24;20.90;99.90
21744;DHT22;11034;48.556;9.342;2022-07-29T13:06:59;21.00;99.90
21744;DHT22;11034;48.556;9.342;2022-07-29T13:09:38;21.10;99.90
21744;DHT22;11034;48.556;9.342;2022-07-29T13:12:07;21.40;99.90
21744;DHT22;11034;48.556;9.342;2022-07-29T13:14:39;21.80;99.90
21744;DHT22;11034;48.556;9.342;2022-07-29T13:17:09;22.10;99.90
21744;DHT22;11034;48.556;9.342;2022-07-29T13:19:39;22.50;99.90
21744;DHT22;11034;48.556;9.342;2022-07-29T13:22:08;22.50;99.90
21744;DHT22;11034;48.556;9.342;2022-07-29T13:24:47;22.80;99.90
21744;DHT22;11034;48.556;9.342;2022-07-29T13:27:16;23.00;99.90
21744;DHT22;11034;48.556;9.342;2022-07-29T13:29:46;23.10;99.90
21744;DHT22;11034;48.556;9.342;2022-07-29T13:32:14;23.20;99.90
21744;DHT22;11034;48.556;9.342;2022-07-29T13:34:54;23.50;99.90
21744;DHT22;11034;48.556;9.342;2022-07-29T13:37:22;23.70;99.90
21744;DHT22;11034;48.556;9.342;2022-07-29T13:39:50;23.90;99.90
21744;DHT22;11034;48.556;9.342;2022-07-29T13:42:19;24.00;99.90
21744;DHT22;11034;48.556;9.342;2022-07-29T13:44:48;24.20;99.90
21744;DHT22;11034;48.556;9.342;2022-07-29T13:47:18;24.10;99.90
21744;DHT22;11034;48.556;9.342;2022-07-29T13:49:46;23.70;99.90
21744;DHT22;11034;48.556;9.342;2022-07-29T13:52:14;23.20;99.90
21744;DHT22;11034;48.556;9.342;2022-07-29T13:54:43;22.80;99.90
21744;DHT22;11034;48.556;9.342;2022-07-29T13:57:11;22.50;99.90
21744;DHT22;11034;48.556;9.342;2022-07-29T13:59:42;21.60;99.90
21744;DHT22;11034;48.556;9.342;2022-07-29T14:02:17;20.60;99.90
21744;DHT22;11034;48.556;9.342;2022-07-29T14:04:45;20.10;99.90
21744;DHT22;11034;48.556;9.342;2022-07-29T14:07:13;20.00;99.90
21744;DHT22;11034;48.556;9.342;2022-07-29T14:09:42;20.00;99.90
21744;DHT22;11034;48.556;9.342;2022-07-29T14:12:11;20.20;99.90
21744;DHT22;11034;48.556;9.342;2022-07-29T14:14:39;20.40;99.90
21744;DHT22;11034;48.556;9.342;2022-07-29T14:17:08;20.50;99.90
21744;DHT22;11034;48.556;9.342;2022-07-29T14:19:38;20.70;99.90
21744;DHT22;11034;48.556;9.342;2022-07-29T14:22:08;21.10;99.90
21744;DHT22;11034;48.556;9.342;2022-07-29T14:24:36;21.40;99.90
21744;DHT22;11034;48.556;9.342;2022-07-29T14:27:05;21.30;99.90
21744;DHT22;11034;48.556;9.342;2022-07-29T14:29:34;21.00;99.90
21744;DHT22;11034;48.556;9.342;2022-07-29T14:32:04;20.80;99.90
21744;DHT22;11034;48.556;9.342;2022-07-29T14:34:33;20.50;99.90
21744;DHT22;11034;48.556;9.342;2022-07-29T14:37:03;20.30;99.90
21744;DHT22;11034;48.556;9.342;2022-07-29T14:39:33;20.20;99.90
21744;DHT22;11034;48.556;9.342;2022-07-29T14:42:08;20.30;99.90
21744;DHT22;11034;48.556;9.342;2022-07-29T14:44:38;20.40;99.90
21744;DHT22;11034;48.556;9.342;2022-07-29T14:47:08;20.70;99.90
21744;DHT22;11034;48.556;9.342;2022-07-29T14:49:41;20.90;99.90
21744;DHT22;11034;48.556;9.342;2022-07-29T14:52:11;20.90;99.90
21744;DHT22;11034;48.556;9.342;2022-07-29T14:54:39;21.00;99.90
21744;DHT22;11034;48.556;9.342;2022-07-29T14:57:07;21.00;99.90
21744;DHT22;11034;48.556;9.342;2022-07-29T14:59:35;20.90;99.90
21744;DHT22;11034;48.556;9.342;2022-07-29T15:02:03;20.60;99.90
21744;DHT22;11034;48.556;9.342;2022-07-29T15:04:31;20.70;99.90
21744;DHT22;11034;48.556;9.342;2022-07-29T15:06:59;20.80;99.90
21744;DHT22;11034;48.556;9.342;2022-07-29T15:09:29;21.00;99.90
21744;DHT22;11034;48.556;9.342;2022-07-29T15:12:02;21.10;99.90
21744;DHT22;11034;48.556;9.342;2022-07-29T15:14:31;21.20;99.90
21744;DHT22;11034;48.556;9.342;2022-07-29T15:16:59;21.40;99.90
21744;DHT22;11034;48.556;9.342;2022-07-29T15:19:30;21.50;99.90
21744;DHT22;11034;48.556;9.342;2022-07-29T15:21:58;21.70;99.90
21744;DHT22;11034;48.556;9.342;2022-07-29T15:24:29;21.80;99.90
21744;DHT22;11034;48.556;9.342;2022-07-29T15:26:57;21.70;99.90
21744;DHT22;11034;48.556;9.342;2022-07-29T15:29:25;21.60;99.90
21744;DHT22;11034;48.556;9.342;2022-07-29T15:31:53;21.60;99.90
21744;DHT22;11034;48.556;9.342;2022-07-29T15:34:22;21.40;99.90
21744;DHT22;11034;48.556;9.342;2022-07-29T15:36:50;21.20;99.90
21744;DHT22;11034;48.556;9.342;2022-07-29T15:39:21;21.20;99.90
21744;DHT22;11034;48.556;9.342;2022-07-29T15:41:50;21.30;99.90
21744;DHT22;11034;48.556;9.342;2022-07-29T15:44:19;21.30;99.90
21744;DHT22;11034;48.556;9.342;2022-07-29T15:46:47;21.40;99.90
21744;DHT22;11034;48.556;9.342;2022-07-29T15:49:40;21.40;99.90
21744;DHT22;11034;48.556;9.342;2022-07-29T15:52:17;21.50;99.90
21744;DHT22;11034;48.556;9.342;2022-07-29T15:54:53;21.70;99.90
21744;DHT22;11034;48.556;9.342;2022-07-29T15:57:32;21.90;99.90
21744;DHT22;11034;48.556;9.342;2022-07-29T16:00:26;21.90;99.90
21744;DHT22;11034;48.556;9.342;2022-07-29T16:03:03;21.90;99.90
21744;DHT22;11034;48.556;9.342;2022-07-29T16:05:32;22.00;99.90